Terminal Aerodrome Forecast
Issued by NWS

Home | Current Version | Previous Version | Text Only | Print | Product List | Glossary Off
Versions: 1 2 3 4 5 6 7 8 9 10 11 12 13 14 15 16 17

289
FTUS43 KICT 261142
TAFSLN
TAF
KSLN 261142Z 2612/2712 05004KT P6SM SCT015
     FM261600 11008KT P6SM SCT040
     FM270000 10005KT P6SM SCT250=

USA.gov is the U.S. government's official web portal to all federal, state and local government web resources and services.